Time;durP1;ratioP1;P1;durP2;ratioP2;P2;SDS_P1;SDS_P2;PMS_P1;PMS_P2;Temp;Humidity;BMP_temperature;BMP_pressure;BME280_temperature;BME280_humidity;BME280_pressure;Samples;Min_cycle;Max_cycle;Signal;HPM_P1;HPM_P2
2022/03/02 00:01:39;;;;;;;38.05;22.65;;;;;;;-145.45;100.00;62759.84;5285091;28;20085;-80
2022/03/02 00:04:10;;;;;;;29.80;20.25;;;;;;;-145.45;100.00;62759.84;5283424;28;20144;-80
2022/03/02 00:06:42;;;;;;;30.52;20.52;;;;;;;-145.45;100.00;62759.84;5281687;28;20052;-80
2022/03/02 00:09:13;;;;;;;29.55;19.73;;;;;;;-145.45;100.00;62759.84;5282710;28;20036;-80
2022/03/02 00:11:44;;;;;;;39.65;25.05;;;;;;;-145.45;100.00;62759.84;5280757;28;20545;-80
2022/03/02 00:14:16;;;;;;;33.22;20.30;;;;;;;-145.45;100.00;62759.84;5281837;28;20028;-80
2022/03/02 00:16:47;;;;;;;38.08;23.60;;;;;;;-145.45;100.00;62759.84;5281449;28;20032;-79
2022/03/02 00:19:18;;;;;;;37.50;22.20;;;;;;;-145.45;100.00;62759.84;5281594;28;20053;-79
2022/03/02 00:21:49;;;;;;;32.55;20.17;;;;;;;-145.45;100.00;62759.84;5262508;28;31161;-79
2022/03/02 00:24:21;;;;;;;39.55;24.13;;;;;;;-145.45;100.00;62759.84;5281429;28;20545;-79
2022/03/02 00:26:52;;;;;;;30.73;21.73;;;;;;;-145.45;100.00;62759.84;5280423;28;20470;-80
2022/03/02 00:29:24;;;;;;;36.03;21.60;;;;;;;-145.45;100.00;62759.84;5281144;28;20037;-79
2022/03/02 00:31:56;;;;;;;39.88;22.83;;;;;;;-145.45;100.00;62759.84;5280831;28;20277;-79
2022/03/02 00:34:27;;;;;;;30.75;19.92;;;;;;;-145.45;100.00;62759.84;5280840;28;20082;-79
2022/03/02 00:36:58;;;;;;;29.42;19.33;;;;;;;-145.45;100.00;62759.84;5282287;28;20032;-79
2022/03/02 00:39:29;;;;;;;36.20;22.42;;;;;;;-145.45;100.00;62759.84;5263238;28;20433;-79
2022/03/02 00:42:01;;;;;;;31.30;20.33;;;;;;;-145.45;100.00;62759.84;5280945;28;20401;-79
2022/03/02 00:44:33;;;;;;;34.72;21.70;;;;;;;-145.45;100.00;62759.84;5279648;28;20025;-80
2022/03/02 00:47:05;;;;;;;31.48;20.90;;;;;;;-145.45;100.00;62759.84;5262702;28;20470;-79
2022/03/02 00:49:37;;;;;;;36.28;21.80;;;;;;;-145.45;100.00;62759.84;5280320;28;20055;-79
2022/03/02 00:52:14;;;;;;;34.65;22.52;;;;;;;-145.45;100.00;62759.84;5280969;28;20020;-80
2022/03/02 00:54:45;;;;;;;29.67;19.80;;;;;;;-145.45;100.00;62759.84;5279361;28;20120;-79
2022/03/02 00:57:16;;;;;;;27.20;18.13;;;;;;;-145.45;100.00;62759.84;5280509;28;20120;-80
2022/03/02 00:59:48;;;;;;;32.75;20.67;;;;;;;-145.45;100.00;62759.84;5280588;28;20060;-79
2022/03/02 01:02:19;;;;;;;31.30;19.27;;;;;;;-145.45;100.00;62759.84;5280783;28;20137;-79
2022/03/02 01:04:50;;;;;;;28.52;19.23;;;;;;;-145.45;100.00;62759.84;5279159;28;24645;-79
2022/03/02 01:07:22;;;;;;;32.08;20.40;;;;;;;-145.45;100.00;62759.84;5280823;28;20529;-79
2022/03/02 01:09:53;;;;;;;28.52;18.65;;;;;;;-145.45;100.00;62759.84;5279568;28;20058;-79
2022/03/02 01:12:25;;;;;;;30.60;19.45;;;;;;;-145.45;100.00;62759.84;5281026;28;20040;-79
2022/03/02 01:14:56;;;;;;;32.10;21.30;;;;;;;-145.45;100.00;62759.84;5279494;28;20159;-79
2022/03/02 01:17:27;;;;;;;31.52;19.60;;;;;;;-145.45;100.00;62759.84;5280722;28;20100;-79
2022/03/02 01:19:59;;;;;;;31.45;19.35;;;;;;;-145.45;100.00;62759.84;5279966;28;20048;-79
2022/03/02 01:22:31;;;;;;;32.08;19.40;;;;;;;-145.45;100.00;62759.84;5259829;28;20029;-79
2022/03/02 01:25:04;;;;;;;30.55;19.88;;;;;;;-145.45;100.00;62759.84;5279715;28;20036;-79
2022/03/02 01:27:36;;;;;;;30.25;19.60;;;;;;;-145.45;100.00;62759.84;5280118;28;20424;-78
2022/03/02 01:30:09;;;;;;;30.17;19.45;;;;;;;-145.45;100.00;62759.84;5280417;28;20025;-79
2022/03/02 01:32:40;;;;;;;28.50;19.52;;;;;;;-145.45;100.00;62759.84;5281024;28;20036;-79
2022/03/02 01:35:12;;;;;;;28.23;18.17;;;;;;;-145.45;100.00;62759.84;5280869;28;20025;-79
2022/03/02 01:37:43;;;;;;;29.27;18.17;;;;;;;-145.45;100.00;62759.84;5263016;28;20037;-80
2022/03/02 01:40:15;;;;;;;30.58;20.42;;;;;;;-145.45;100.00;62759.84;5278773;28;20033;-79
2022/03/02 01:42:46;;;;;;;32.05;20.83;;;;;;;-145.45;100.00;62759.84;5261936;28;20021;-79
2022/03/02 01:45:17;;;;;;;36.70;22.23;;;;;;;-145.45;100.00;62759.84;5280328;28;20025;-79
2022/03/02 01:47:49;;;;;;;32.50;19.50;;;;;;;-145.45;100.00;62759.84;5262506;28;20107;-79
2022/03/02 01:50:20;;;;;;;31.98;21.88;;;;;;;-145.45;100.00;62759.84;5279809;28;20123;-79
2022/03/02 01:52:51;;;;;;;30.45;18.58;;;;;;;-145.45;100.00;62759.84;5279919;28;20312;-79
2022/03/02 01:55:23;;;;;;;31.27;20.20;;;;;;;-145.45;100.00;62759.84;5261423;28;20393;-78
2022/03/02 01:57:56;;;;;;;29.05;18.63;;;;;;;-145.45;100.00;62759.84;5282714;28;20374;-78
2022/03/02 02:00:28;;;;;;;27.75;18.63;;;;;;;-145.45;100.00;62759.84;5264794;28;20032;-78
2022/03/02 02:03:00;;;;;;;32.70;19.55;;;;;;;-145.45;100.00;62759.84;5283686;28;20056;-78
2022/03/02 02:05:31;;;;;;;31.20;19.55;;;;;;;-145.45;100.00;62759.84;5283318;28;20061;-79
2022/03/02 02:08:02;;;;;;;31.80;18.77;;;;;;;-145.45;100.00;62759.84;5284273;28;20416;-79
2022/03/02 02:10:35;;;;;;;29.90;19.55;;;;;;;-145.45;100.00;62759.84;5283090;28;20025;-78
2022/03/02 02:13:06;;;;;;;29.15;18.35;;;;;;;-145.45;100.00;62759.84;5266144;28;20131;-79
2022/03/02 02:15:38;;;;;;;31.67;19.10;;;;;;;-145.45;100.00;62759.84;5283061;28;20109;-78
2022/03/02 02:18:09;;;;;;;29.77;17.55;;;;;;;-145.45;100.00;62759.84;5284014;28;20095;-79
2022/03/02 02:20:40;;;;;;;31.02;19.20;;;;;;;-145.45;100.00;62759.84;5283573;28;20037;-78
2022/03/02 02:23:13;;;;;;;27.98;17.98;;;;;;;-145.45;100.00;62759.84;5284042;28;20035;-78
2022/03/02 02:25:44;;;;;;;28.27;18.30;;;;;;;-145.45;100.00;62759.84;5282237;28;20346;-79
2022/03/02 02:28:21;;;;;;;30.05;18.38;;;;;;;-145.45;100.00;62759.84;5283863;28;20032;-79
2022/03/02 02:30:53;;;;;;;;;;;;;;;-145.45;100.00;62759.84;5262516;28;20158;-78
2022/03/02 02:33:25;;;;;;;28.77;17.30;;;;;;;-145.45;100.00;62759.84;5283580;28;20007;-79
2022/03/02 02:35:57;;;;;;;30.20;17.58;;;;;;;-145.45;100.00;62759.84;5282769;28;20064;-79
2022/03/02 02:38:29;;;;;;;28.55;19.05;;;;;;;-145.45;100.00;62759.84;5283405;28;20116;-79
2022/03/02 02:41:00;;;;;;;28.55;18.60;;;;;;;-145.45;100.00;62759.84;5282127;28;20148;-79
2022/03/02 02:43:32;;;;;;;25.73;17.73;;;;;;;-145.45;100.00;62759.84;5283392;28;20025;-79
2022/03/02 02:46:03;;;;;;;33.85;18.27;;;;;;;-145.45;100.00;62759.84;5264096;28;20035;-78
2022/03/02 02:48:34;;;;;;;30.38;18.90;;;;;;;-145.45;100.00;62759.84;5265285;28;20044;-79
2022/03/02 02:51:07;;;;;;;31.23;19.52;;;;;;;-145.45;100.00;62759.84;5283027;28;20073;-79
2022/03/02 02:53:38;;;;;;;27.85;19.35;;;;;;;-145.45;100.00;62759.84;5264582;28;20410;-79
2022/03/02 02:56:09;;;;;;;26.75;17.88;;;;;;;-145.45;100.00;62759.84;5281905;28;20029;-79
2022/03/02 02:58:41;;;;;;;27.88;18.27;;;;;;;-145.45;100.00;62759.84;5282958;28;20543;-79
2022/03/02 03:01:12;;;;;;;31.70;18.90;;;;;;;-145.45;100.00;62759.84;5264582;28;20040;-78
2022/03/02 03:03:43;;;;;;;26.95;17.70;;;;;;;-145.45;100.00;62759.84;5281865;28;20025;-79
2022/03/02 03:06:15;;;;;;;28.88;17.48;;;;;;;-145.45;100.00;62759.84;5264737;28;20021;-78
2022/03/02 03:08:46;;;;;;;26.17;17.85;;;;;;;-145.45;100.00;62759.84;5282945;28;20025;-79
2022/03/02 03:11:17;;;;;;;27.80;17.25;;;;;;;-145.45;100.00;62759.84;5281858;28;20029;-79
2022/03/02 03:13:49;;;;;;;27.13;17.02;;;;;;;-145.45;100.00;62759.84;5282517;28;20389;-79
2022/03/02 03:16:20;;;;;;;26.38;17.58;;;;;;;-145.45;100.00;62759.84;5281923;28;20516;-79
2022/03/02 03:18:52;;;;;;;26.08;16.48;;;;;;;-145.45;100.00;62759.84;5282903;28;20035;-79
2022/03/02 03:21:23;;;;;;;25.33;17.58;;;;;;;-145.45;100.00;62759.84;5282396;28;20049;-79
2022/03/02 03:23:55;;;;;;;28.40;17.33;;;;;;;-145.45;100.00;62759.84;5282642;28;20036;-79
2022/03/02 03:26:26;;;;;;;27.52;16.65;;;;;;;-145.45;100.00;62759.84;5262777;28;20024;-79
2022/03/02 03:28:58;;;;;;;26.67;17.55;;;;;;;-145.45;100.00;62759.84;5282474;28;20037;-79
2022/03/02 03:31:29;;;;;;;27.52;16.85;;;;;;;-145.45;100.00;62759.84;5262409;28;40766;-79
2022/03/02 03:34:00;;;;;;;26.90;16.98;;;;;;;-145.45;100.00;62759.84;5282601;28;20408;-79
2022/03/02 03:36:32;;;;;;;31.85;17.00;;;;;;;-145.45;100.00;62759.84;5281250;28;20031;-79
2022/03/02 03:39:04;;;;;;;26.65;17.80;;;;;;;-145.45;100.00;62759.84;5282069;28;20032;-79
2022/03/02 03:41:35;;;;;;;25.92;15.85;;;;;;;-145.45;100.00;62759.84;5280675;28;20044;-79
2022/03/02 03:44:06;;;;;;;25.52;16.52;;;;;;;-145.45;100.00;62759.84;5264071;28;20033;-79
2022/03/02 03:46:38;;;;;;;26.67;16.30;;;;;;;-145.45;100.00;62759.84;5281414;28;20021;-79
2022/03/02 03:49:09;;;;;;;27.45;16.73;;;;;;;-145.45;100.00;62759.84;5281903;28;20425;-79
2022/03/02 03:51:40;;;;;;;25.20;16.05;;;;;;;-145.45;100.00;62759.84;5279899;28;20029;-79
2022/03/02 03:54:12;;;;;;;26.38;16.45;;;;;;;-145.45;100.00;62759.84;5282197;28;20029;-79
2022/03/02 03:56:43;;;;;;;27.15;15.38;;;;;;;-145.45;100.00;62759.84;5261506;28;20113;-79
2022/03/02 03:59:15;;;;;;;25.10;15.45;;;;;;;-145.45;100.00;62759.84;5281107;28;20036;-79
2022/03/02 04:01:46;;;;;;;26.90;16.00;;;;;;;-145.45;100.00;62759.84;5281287;28;20112;-79
2022/03/02 04:04:17;;;;;;;26.98;15.90;;;;;;;-145.45;100.00;62759.84;5282117;28;20025;-79
2022/03/02 04:06:49;;;;;;;25.88;16.00;;;;;;;-145.45;100.00;62759.84;5263159;28;20771;-79
2022/03/02 04:09:20;;;;;;;22.70;15.20;;;;;;;-145.45;100.00;62759.84;5282325;28;20107;-78
2022/03/02 04:11:51;;;;;;;25.92;15.88;;;;;;;-145.45;100.00;62759.84;5265204;28;20021;-79
2022/03/02 04:14:22;;;;;;;25.55;15.75;;;;;;;-145.45;100.00;62759.84;5280567;28;20017;-79
2022/03/02 04:16:54;;;;;;;25.27;15.63;;;;;;;-145.45;100.00;62759.84;5281798;28;20420;-79
2022/03/02 04:19:25;;;;;;;23.98;15.63;;;;;;;-145.45;100.00;62759.84;5281337;28;20029;-79
2022/03/02 04:21:56;;;;;;;22.15;15.02;;;;;;;-145.45;100.00;62759.84;5281687;28;20036;-79
2022/03/02 04:24:28;;;;;;;22.27;14.75;;;;;;;-145.45;100.00;62759.84;5263773;28;20051;-79
2022/03/02 04:26:59;;;;;;;21.98;15.05;;;;;;;-145.45;100.00;62759.84;5280410;28;20040;-78
2022/03/02 04:29:30;;;;;;;24.13;16.15;;;;;;;-145.45;100.00;62759.84;5260318;28;20145;-79
2022/03/02 04:32:02;;;;;;;25.05;16.20;;;;;;;-145.45;100.00;62759.84;5281637;28;20021;-79
2022/03/02 04:34:33;;;;;;;24.30;16.30;;;;;;;-145.45;100.00;62759.84;5281747;28;20074;-78
2022/03/02 04:37:05;;;;;;;23.33;15.30;;;;;;;-145.45;100.00;62759.84;5281320;28;20033;-79
2022/03/02 04:39:36;;;;;;;23.80;15.68;;;;;;;-145.45;100.00;62759.84;5263400;28;20033;-79
2022/03/02 04:42:08;;;;;;;25.08;16.00;;;;;;;-145.45;100.00;62759.84;5281297;28;20111;-79
2022/03/02 04:44:39;;;;;;;25.42;15.30;;;;;;;-145.45;100.00;62759.84;5259573;28;20048;-79
2022/03/02 04:47:10;;;;;;;27.63;16.58;;;;;;;-145.45;100.00;62759.84;5280144;28;20083;-79
2022/03/02 04:49:41;;;;;;;27.10;15.73;;;;;;;-145.45;100.00;62759.84;5262529;28;21107;-79
2022/03/02 04:52:13;;;;;;;24.75;15.13;;;;;;;-145.45;100.00;62759.84;5281323;28;20029;-79
2022/03/02 04:57:45;;;;;;;24.15;15.80;;;;;;;-145.45;100.00;62759.84;5280577;28;20029;-80
2022/03/02 05:00:17;;;;;;;24.15;15.35;;;;;;;-145.45;100.00;62759.84;5280301;28;20502;-80
2022/03/02 05:02:50;;;;;;;23.40;15.07;;;;;;;-145.45;100.00;62759.84;5279521;28;20048;-80
2022/03/02 05:05:22;;;;;;;23.02;14.52;;;;;;;-145.45;100.00;62759.84;5281411;28;20029;-80
2022/03/02 05:07:54;;;;;;;23.65;15.38;;;;;;;-145.45;100.00;62759.84;5281312;28;20040;-80
2022/03/02 05:10:26;;;;;;;21.33;14.75;;;;;;;-145.45;100.00;62759.84;5280621;28;20024;-80
2022/03/02 05:12:58;;;;;;;24.48;15.48;;;;;;;-145.45;100.00;62759.84;5262686;28;20473;-80
2022/03/02 05:15:30;;;;;;;25.77;16.02;;;;;;;-145.45;100.00;62759.84;5279700;28;20025;-79
2022/03/02 05:18:02;;;;;;;23.67;15.18;;;;;;;-145.45;100.00;62759.84;5281564;28;20132;-79
2022/03/02 05:20:33;;;;;;;23.80;14.70;;;;;;;-145.45;100.00;62759.84;5263003;28;20072;-80
2022/03/02 05:23:04;;;;;;;24.15;14.85;;;;;;;-145.45;100.00;62759.84;5281526;28;20409;-80
2022/03/02 05:25:36;;;;;;;22.00;14.38;;;;;;;-145.45;100.00;62759.84;5284577;28;20014;-79
2022/03/02 05:28:07;;;;;;;23.23;14.32;;;;;;;-145.45;100.00;62759.84;5288270;28;20056;-79
2022/03/02 05:30:38;;;;;;;22.90;14.35;;;;;;;-145.45;100.00;62759.84;5285790;28;20039;-79
2022/03/02 05:33:10;;;;;;;25.08;15.15;;;;;;;-145.45;100.00;62759.84;5282284;28;20029;-78
2022/03/02 05:35:41;;;;;;;23.45;15.85;;;;;;;-145.45;100.00;62759.84;5284915;28;20033;-79
2022/03/02 05:38:12;;;;;;;23.00;13.63;;;;;;;-145.45;100.00;62759.84;5285781;28;20027;-79
2022/03/02 05:40:44;;;;;;;23.98;13.57;;;;;;;-145.45;100.00;62759.84;5267155;28;20052;-79
2022/03/02 05:43:15;;;;;;;20.65;13.10;;;;;;;-145.45;100.00;62759.84;5287022;28;20040;-79
2022/03/02 05:45:46;;;;;;;25.60;14.43;;;;;;;-145.45;100.00;62759.84;5285051;28;20029;-79
2022/03/02 05:48:17;;;;;;;20.77;13.25;;;;;;;-145.45;100.00;62759.84;5283362;28;20625;-79
2022/03/02 05:50:49;;;;;;;21.50;13.35;;;;;;;-145.45;100.00;62759.84;5280533;28;20044;-80
2022/03/02 05:53:20;;;;;;;21.20;14.45;;;;;;;-145.45;100.00;62759.84;5262975;28;20138;-79
2022/03/02 05:55:51;;;;;;;20.67;12.90;;;;;;;-145.45;100.00;62759.84;5279794;28;20380;-80
2022/03/02 05:58:23;;;;;;;21.15;13.40;;;;;;;-145.45;100.00;62759.84;5281187;28;20053;-79
2022/03/02 06:00:56;;;;;;;24.17;13.15;;;;;;;-145.45;100.00;62759.84;5280469;28;20045;-80
2022/03/02 06:03:29;;;;;;;21.83;14.70;;;;;;;-145.45;100.00;62759.84;5278590;28;20029;-80
2022/03/02 06:06:00;;;;;;;22.73;13.68;;;;;;;-145.45;100.00;62759.84;5280656;28;20150;-80
2022/03/02 06:08:31;;;;;;;21.45;13.55;;;;;;;-145.45;100.00;62759.84;5280921;28;20401;-80
2022/03/02 06:11:03;;;;;;;17.95;12.95;;;;;;;-145.45;100.00;62759.84;5278819;28;20566;-80
2022/03/02 06:13:35;;;;;;;20.23;13.32;;;;;;;-145.45;100.00;62759.84;5280299;28;20381;-80
2022/03/02 06:16:07;;;;;;;20.00;13.10;;;;;;;-145.45;100.00;62759.84;5280220;28;20025;-80
2022/03/02 06:18:39;;;;;;;20.30;12.85;;;;;;;-145.45;100.00;62759.84;5261248;28;20108;-80
2022/03/02 06:21:15;;;;;;;21.85;12.77;;;;;;;-145.45;100.00;62759.84;5261528;28;20021;-80
2022/03/02 06:23:47;;;;;;;23.85;13.25;;;;;;;-145.45;100.00;62759.84;5277031;28;20477;-80
2022/03/02 06:26:18;;;;;;;22.83;13.82;;;;;;;-145.45;100.00;62759.84;5279528;28;20025;-79
2022/03/02 06:28:50;;;;;;;22.92;13.52;;;;;;;-145.45;100.00;62759.84;5280304;28;20036;-79
2022/03/02 06:31:21;;;;;;;19.65;12.85;;;;;;;-145.45;100.00;62759.84;5279588;28;20816;-80
2022/03/02 06:33:52;;;;;;;20.35;12.18;;;;;;;-145.45;100.00;62759.84;5280566;28;20061;-79
2022/03/02 06:36:24;;;;;;;19.10;12.52;;;;;;;-145.45;100.00;62759.84;5279628;28;20029;-79
2022/03/02 06:38:55;;;;;;;21.10;13.00;;;;;;;-145.45;100.00;62759.84;5280515;28;20132;-79
2022/03/02 06:41:40;;;;;;;19.80;11.85;;;;;;;-145.45;100.00;62759.84;5258700;28;20033;-79
2022/03/02 06:44:31;;;;;;;24.92;13.43;;;;;;;-145.45;100.00;62759.84;5283151;28;20017;-80
2022/03/02 06:47:09;;;;;;;20.85;12.52;;;;;;;-145.45;100.00;62759.84;5284484;28;20017;-79
2022/03/02 06:49:46;;;;;;;20.77;12.93;;;;;;;-145.45;100.00;62759.84;5283086;28;20037;-80
2022/03/02 06:52:19;;;;;;;20.48;13.02;;;;;;;-145.45;100.00;62759.84;5283607;28;20429;-79
2022/03/02 06:54:51;;;;;;;25.08;14.77;;;;;;;-145.45;100.00;62759.84;5264972;28;20025;-79
2022/03/02 06:57:27;;;;;;;21.95;13.57;;;;;;;-145.45;100.00;62759.84;5283314;28;20464;-80
2022/03/02 07:00:06;;;;;;;23.48;13.30;;;;;;;-145.45;100.00;62759.84;5265439;28;20048;-80
2022/03/02 07:02:42;;;;;;;21.08;12.60;;;;;;;-145.45;100.00;62759.84;5284299;28;20072;-80
2022/03/02 07:05:14;;;;;;;21.92;12.68;;;;;;;-145.45;100.00;62759.84;5284600;28;20828;-79
2022/03/02 07:07:47;;;;;;;19.17;12.90;;;;;;;-145.45;100.00;62759.84;5283809;28;20061;-79
2022/03/02 07:10:19;;;;;;;20.88;12.25;;;;;;;-145.45;100.00;62759.84;5282659;28;20025;-79
2022/03/02 07:12:51;;;;;;;20.00;13.25;;;;;;;-145.45;100.00;62759.84;5282989;28;20509;-79
2022/03/02 07:15:24;;;;;;;21.45;12.73;;;;;;;-145.45;100.00;62759.84;5282388;28;20036;-79
2022/03/02 07:17:58;;;;;;;21.27;12.60;;;;;;;-145.45;100.00;62759.84;5284776;28;20048;-80
2022/03/02 07:20:30;;;;;;;18.90;12.85;;;;;;;-145.45;100.00;62759.84;5281995;28;20037;-80
2022/03/02 07:23:03;;;;;;;22.10;12.90;;;;;;;-145.45;100.00;62759.84;5281880;28;20033;-80
2022/03/02 07:25:37;;;;;;;21.27;12.65;;;;;;;-145.45;100.00;62759.84;5281693;28;20021;-80
2022/03/02 07:28:11;;;;;;;21.23;13.45;;;;;;;-145.45;100.00;62759.84;5282561;28;20428;-80
2022/03/02 07:30:44;;;;;;;23.15;12.40;;;;;;;-145.45;100.00;62759.84;5282639;28;20458;-81
2022/03/02 07:33:15;;;;;;;22.08;12.77;;;;;;;-145.45;100.00;62759.84;5282658;28;20512;-82
2022/03/02 07:35:55;;;;;;;22.13;12.57;;;;;;;-145.45;100.00;62759.84;5283718;28;20025;-82
2022/03/02 07:38:28;;;;;;;20.77;12.30;;;;;;;-145.45;100.00;62759.84;5283156;28;20103;-81
2022/03/02 07:40:59;;;;;;;18.52;11.60;;;;;;;-145.45;100.00;62759.84;5282898;28;20037;-82
2022/03/02 07:43:30;;;;;;;18.20;12.27;;;;;;;-145.45;100.00;62759.84;5265013;28;21548;-82
2022/03/02 07:46:04;;;;;;;16.92;12.43;;;;;;;-145.45;100.00;62759.84;5283710;28;20033;-82
2022/03/02 07:48:37;;;;;;;17.63;12.38;;;;;;;-145.45;100.00;62759.84;5283955;28;20017;-82
2022/03/02 07:51:09;;;;;;;18.05;12.10;;;;;;;-145.45;100.00;62759.84;5283352;28;20041;-82
2022/03/02 07:53:43;;;;;;;16.20;11.57;;;;;;;-145.45;100.00;62759.84;5283450;28;20370;-82
2022/03/02 07:56:16;;;;;;;20.75;12.98;;;;;;;-145.45;100.00;62759.84;5263182;28;20439;-83
2022/03/02 07:58:49;;;;;;;17.30;12.50;;;;;;;-145.45;100.00;62759.84;5283074;28;20033;-82
2022/03/02 08:01:21;;;;;;;17.65;12.07;;;;;;;-145.45;100.00;62759.84;5282565;28;20090;-83
2022/03/02 08:03:57;;;;;;;15.00;11.55;;;;;;;-145.45;100.00;62759.84;5281855;28;20033;-83
2022/03/02 08:06:28;;;;;;;16.48;11.52;;;;;;;-145.45;100.00;62759.84;5282952;28;20017;-83
2022/03/02 08:09:02;;;;;;;16.13;11.57;;;;;;;-145.45;100.00;62759.84;5283209;28;20044;-82
2022/03/02 08:11:37;;;;;;;16.95;11.75;;;;;;;-145.45;100.00;62759.84;5281755;28;20061;-82
2022/03/02 08:14:08;;;;;;;17.25;11.57;;;;;;;-145.45;100.00;62759.84;5282730;28;20033;-83
2022/03/02 08:16:41;;;;;;;16.75;10.82;;;;;;;-145.45;100.00;62759.84;5302178;28;20039;-83
2022/03/02 08:19:13;;;;;;;15.27;10.73;;;;;;;-145.45;100.00;62759.84;5304489;28;20027;-83
2022/03/02 08:21:50;;;;;;;14.65;10.60;;;;;;;-145.45;100.00;62759.84;5303744;28;20420;-83
2022/03/02 08:24:24;;;;;;;14.00;10.68;;;;;;;-145.45;100.00;62759.84;5304305;28;20028;-84
2022/03/02 08:27:00;;;;;;;18.33;12.23;;;;;;;-145.45;100.00;62759.84;5304068;28;20114;-84
2022/03/02 08:29:32;;;;;;;15.98;11.60;;;;;;;-145.45;100.00;62759.84;5285258;28;20481;-83
2022/03/02 08:32:05;;;;;;;14.43;11.02;;;;;;;-145.45;100.00;62759.84;5283074;28;20025;-84
2022/03/02 08:34:43;;;;;;;15.55;11.32;;;;;;;-145.45;100.00;62759.84;5282993;28;20029;-84
2022/03/02 08:37:17;;;;;;;16.10;10.93;;;;;;;-145.45;100.00;62759.84;5281200;28;20362;-84
2022/03/02 08:39:48;;;;;;;15.88;11.52;;;;;;;-145.45;100.00;62759.84;5282721;28;20068;-84
2022/03/02 08:42:20;;;;;;;12.60;10.55;;;;;;;-145.45;100.00;62759.84;5283054;28;20104;-84
2022/03/02 08:44:54;;;;;;;15.13;10.40;;;;;;;-145.45;100.00;62759.84;5283058;28;20371;-84
2022/03/02 08:47:25;;;;;;;14.57;10.90;;;;;;;-145.45;100.00;62759.84;5282778;28;20021;-84
2022/03/02 08:49:57;;;;;;;14.82;11.00;;;;;;;-145.45;100.00;62759.84;5282032;28;20453;-84
2022/03/02 08:52:31;;;;;;;12.73;10.95;;;;;;;-145.45;100.00;62759.84;5268651;28;20025;-84
2022/03/02 08:55:09;;;;;;;12.38;10.63;;;;;;;-145.45;100.00;62759.84;5281903;28;20107;-84
2022/03/02 08:57:42;;;;;;;16.15;10.98;;;;;;;-145.45;100.00;62759.84;5282326;28;20122;-84
2022/03/02 09:00:16;;;;;;;18.08;12.10;;;;;;;-145.45;100.00;62759.84;5264915;28;20479;-83
2022/03/02 09:02:50;;;;;;;12.43;9.98;;;;;;;-145.45;100.00;62759.84;5279212;28;20025;-84
2022/03/02 09:05:26;;;;;;;11.75;10.43;;;;;;;-145.45;100.00;62759.84;5282505;28;20025;-84
2022/03/02 09:07:57;;;;;;;17.03;11.80;;;;;;;-145.45;100.00;62759.84;5282555;28;20013;-84
2022/03/02 09:10:29;;;;;;;12.77;10.48;;;;;;;-145.45;100.00;62759.84;5281723;28;20267;-84
2022/03/02 09:13:02;;;;;;;13.85;10.32;;;;;;;-145.45;100.00;62759.84;5281260;28;20024;-84
2022/03/02 09:15:37;;;;;;;14.90;10.70;;;;;;;-145.45;100.00;62759.84;5282252;28;20076;-85
2022/03/02 09:18:08;;;;;;;16.08;10.23;;;;;;;-145.45;100.00;62759.84;5282033;28;20036;-84
2022/03/02 09:20:41;;;;;;;12.40;10.20;;;;;;;-145.45;100.00;62759.84;5281934;28;20029;-84
2022/03/02 09:23:13;;;;;;;12.10;10.15;;;;;;;-145.45;100.00;62759.84;5282410;28;20025;-84
2022/03/02 09:25:46;;;;;;;15.45;10.25;;;;;;;-145.45;100.00;62759.84;5281431;28;20083;-84
2022/03/02 09:28:20;;;;;;;16.42;10.30;;;;;;;-145.45;100.00;62759.84;5282762;28;20032;-84
2022/03/02 09:30:52;;;;;;;10.43;9.32;;;;;;;-145.45;100.00;62759.84;5282286;28;20025;-84
2022/03/02 09:33:25;;;;;;;12.35;9.93;;;;;;;-145.45;100.00;62759.84;5263975;28;20029;-84
2022/03/02 09:36:08;;;;;;;11.52;9.90;;;;;;;-145.45;100.00;62759.84;5283364;28;20479;-84
2022/03/02 09:38:40;;;;;;;14.20;9.88;;;;;;;-145.45;100.00;62759.84;5282664;28;20021;-84
2022/03/02 09:41:23;;;;;;;10.25;9.25;;;;;;;-145.45;100.00;62759.84;5263624;28;20087;-84
2022/03/02 09:43:57;;;;;;;12.38;9.70;;;;;;;-145.45;100.00;62759.84;5277761;28;20099;-82
2022/03/02 09:46:35;;;;;;;11.63;9.68;;;;;;;-145.45;100.00;62759.84;5285787;28;20082;-83
2022/03/02 09:49:11;;;;;;;12.25;10.63;;;;;;;-145.45;100.00;62759.84;5285584;28;20068;-83
2022/03/02 09:51:43;;;;;;;10.38;9.30;;;;;;;-145.45;100.00;62759.84;5282390;28;20037;-82
2022/03/02 09:54:18;;;;;;;11.23;9.48;;;;;;;-145.45;100.00;62759.84;5283050;28;20587;-83
2022/03/02 09:56:51;;;;;;;11.70;9.80;;;;;;;-145.45;100.00;62759.84;5282394;28;20033;-82
2022/03/02 09:59:26;;;;;;;10.88;8.93;;;;;;;-145.45;100.00;62759.84;5284804;28;20125;-82
2022/03/02 10:02:00;;;;;;;10.73;9.20;;;;;;;-145.45;100.00;62759.84;5281380;28;20040;-82
2022/03/02 10:04:37;;;;;;;12.02;8.30;;;;;;;-145.45;100.00;62759.84;5262559;28;20050;-82
2022/03/02 10:07:26;;;;;;;10.55;8.98;;;;;;;-145.45;100.00;62759.84;5279687;28;20021;-82
2022/03/02 10:10:08;;;;;;;10.18;9.18;;;;;;;-145.45;100.00;62759.84;5280103;28;20075;-82
2022/03/02 10:12:40;;;;;;;10.10;9.02;;;;;;;-145.45;100.00;62759.84;5255317;28;20083;-83
2022/03/02 10:15:16;;;;;;;10.07;8.95;;;;;;;-145.45;100.00;62759.84;5256229;28;20017;-83
2022/03/02 10:17:51;;;;;;;11.30;9.30;;;;;;;-145.45;100.00;62759.84;5272716;28;20033;-82
2022/03/02 10:20:28;;;;;;;9.87;8.87;;;;;;;-145.45;100.00;62759.84;5277741;28;20025;-82
2022/03/02 10:23:26;;;;;;;9.40;8.27;;;;;;;-145.45;100.00;62759.84;5277335;28;20330;-82
2022/03/02 10:26:19;;;;;;;9.68;8.15;;;;;;;-145.45;100.00;62759.84;5278208;28;20425;-82
2022/03/02 10:28:53;;;;;;;9.43;8.52;;;;;;;-145.45;100.00;62759.84;5277203;28;20029;-82
2022/03/02 10:31:43;;;;;;;13.48;9.23;;;;;;;-145.45;100.00;62759.84;5258393;28;20028;-83
2022/03/02 10:34:27;;;;;;;11.68;9.13;;;;;;;-145.45;100.00;62759.84;5280170;28;20020;-82
2022/03/02 10:37:13;;;;;;;10.75;8.85;;;;;;;-145.45;100.00;62759.84;5260043;28;20041;-82
2022/03/02 10:39:47;;;;;;;10.70;9.05;;;;;;;-145.45;100.00;62759.84;5277709;28;20032;-82
2022/03/02 10:42:26;;;;;;;9.85;8.82;;;;;;;-145.45;100.00;62759.84;5274858;28;20968;-83
2022/03/02 10:45:19;;;;;;;9.50;8.50;;;;;;;-145.45;100.00;62759.84;5277997;28;20492;-83
2022/03/02 10:48:10;;;;;;;9.35;8.35;;;;;;;-145.45;100.00;62759.84;5260478;28;20033;-83
2022/03/02 10:50:43;;;;;;;13.85;8.45;;;;;;;-145.45;100.00;62759.84;5275929;28;20053;-82
2022/03/02 10:53:18;;;;;;;10.20;7.97;;;;;;;-145.45;100.00;62759.84;5278139;28;20111;-82
2022/03/02 10:55:49;;;;;;;9.55;8.30;;;;;;;-145.45;100.00;62759.84;5262850;28;20047;-82
2022/03/02 10:58:20;;;;;;;10.10;8.32;;;;;;;-145.45;100.00;62759.84;5298144;28;20043;-82
2022/03/02 11:00:52;;;;;;;9.48;8.48;;;;;;;-145.45;100.00;62759.84;5290667;28;20100;-83
2022/03/02 11:03:27;;;;;;;9.15;8.20;;;;;;;-145.45;100.00;62759.84;5294868;28;20105;-82
2022/03/02 11:06:02;;;;;;;9.47;8.20;;;;;;;-145.45;100.00;62759.84;5280130;28;20048;-82
2022/03/02 11:08:35;;;;;;;14.50;8.93;;;;;;;-145.45;100.00;62759.84;5289707;28;20039;-82
2022/03/02 11:11:08;;;;;;;9.45;8.18;;;;;;;-145.45;100.00;62759.84;5290049;28;20025;-82
2022/03/02 11:13:40;;;;;;;10.23;8.05;;;;;;;-145.45;100.00;62759.84;5290327;28;20036;-81
2022/03/02 11:16:19;;;;;;;9.38;8.15;;;;;;;-145.45;100.00;62759.84;5282993;28;20470;-82
2022/03/02 11:18:52;;;;;;;10.27;8.65;;;;;;;-145.45;100.00;62759.84;5274399;28;20021;-82
2022/03/02 11:21:31;;;;;;;9.10;8.20;;;;;;;-145.45;100.00;62759.84;5280855;28;20488;-83
2022/03/02 11:24:05;;;;;;;11.18;8.52;;;;;;;-145.45;100.00;62759.84;5262804;28;20021;-82
2022/03/02 11:26:39;;;;;;;9.45;8.35;;;;;;;-145.45;100.00;62759.84;5259776;28;20032;-82